sensor_id;sensor_type;location;lat;lon;timestamp;temperature;humidity
16200;DHT22;8207;52.494;4.654;2022-09-17T00:01:35;13.30;1.00
16200;DHT22;8207;52.494;4.654;2022-09-17T00:04:03;13.40;1.00
16200;DHT22;8207;52.494;4.654;2022-09-17T00:06:31;13.40;1.00
16200;DHT22;8207;52.494;4.654;2022-09-17T00:09:00;13.40;1.00
16200;DHT22;8207;52.494;4.654;2022-09-17T00:11:30;13.40;1.00
16200;DHT22;8207;52.494;4.654;2022-09-17T00:13:58;13.40;1.00
16200;DHT22;8207;52.494;4.654;2022-09-17T00:16:28;13.40;1.00
16200;DHT22;8207;52.494;4.654;2022-09-17T00:18:56;13.40;1.00
16200;DHT22;8207;52.494;4.654;2022-09-17T00:21:23;13.50;1.00
16200;DHT22;8207;52.494;4.654;2022-09-17T00:23:55;13.40;1.00
16200;DHT22;8207;52.494;4.654;2022-09-17T00:26:24;13.50;1.00
16200;DHT22;8207;52.494;4.654;2022-09-17T00:28:52;13.50;1.00
16200;DHT22;8207;52.494;4.654;2022-09-17T00:31:19;13.60;1.00
16200;DHT22;8207;52.494;4.654;2022-09-17T00:33:46;13.60;1.00
16200;DHT22;8207;52.494;4.654;2022-09-17T00:36:13;13.60;1.00
16200;DHT22;8207;52.494;4.654;2022-09-17T00:38:40;13.60;1.00
16200;DHT22;8207;52.494;4.654;2022-09-17T00:41:08;13.60;1.00
16200;DHT22;8207;52.494;4.654;2022-09-17T00:43:40;13.60;1.00
16200;DHT22;8207;52.494;4.654;2022-09-17T00:46:17;13.60;1.00
16200;DHT22;8207;52.494;4.654;2022-09-17T00:48:47;13.50;1.00
16200;DHT22;8207;52.494;4.654;2022-09-17T00:51:17;13.50;1.00
16200;DHT22;8207;52.494;4.654;2022-09-17T00:53:46;13.40;1.00
16200;DHT22;8207;52.494;4.654;2022-09-17T00:56:18;13.30;7.70
16200;DHT22;8207;52.494;4.654;2022-09-17T00:58:49;13.30;22.30
16200;DHT22;8207;52.494;4.654;2022-09-17T01:01:17;13.20;28.30
16200;DHT22;8207;52.494;4.654;2022-09-17T01:03:44;13.20;41.30
16200;DHT22;8207;52.494;4.654;2022-09-17T01:06:19;13.10;59.40
16200;DHT22;8207;52.494;4.654;2022-09-17T01:09:01;13.00;51.70
16200;DHT22;8207;52.494;4.654;2022-09-17T01:11:51;13.00;45.20
16200;DHT22;8207;52.494;4.654;2022-09-17T01:14:44;13.00;1.00
16200;DHT22;8207;52.494;4.654;2022-09-17T01:17:18;13.00;1.00
16200;DHT22;8207;52.494;4.654;2022-09-17T01:23:01;13.20;1.00
16200;DHT22;8207;52.494;4.654;2022-09-17T01:25:40;13.30;1.00
16200;DHT22;8207;52.494;4.654;2022-09-17T01:28:31;13.40;1.00
16200;DHT22;8207;52.494;4.654;2022-09-17T01:31:28;13.50;1.00
16200;DHT22;8207;52.494;4.654;2022-09-17T01:34:07;13.50;1.00
16200;DHT22;8207;52.494;4.654;2022-09-17T01:36:52;13.60;1.00
16200;DHT22;8207;52.494;4.654;2022-09-17T01:39:30;13.60;1.00
16200;DHT22;8207;52.494;4.654;2022-09-17T01:42:06;13.60;1.00
16200;DHT22;8207;52.494;4.654;2022-09-17T01:44:39;13.70;1.00
16200;DHT22;8207;52.494;4.654;2022-09-17T01:47:15;13.70;1.00
16200;DHT22;8207;52.494;4.654;2022-09-17T01:49:44;13.70;1.00
16200;DHT22;8207;52.494;4.654;2022-09-17T01:52:12;13.70;1.00
16200;DHT22;8207;52.494;4.654;2022-09-17T01:54:43;13.70;1.00
16200;DHT22;8207;52.494;4.654;2022-09-17T01:57:14;13.70;1.00
16200;DHT22;8207;52.494;4.654;2022-09-17T01:59:47;13.70;1.00
16200;DHT22;8207;52.494;4.654;2022-09-17T02:02:20;13.60;1.00
16200;DHT22;8207;52.494;4.654;2022-09-17T02:04:54;13.70;1.00
16200;DHT22;8207;52.494;4.654;2022-09-17T02:07:23;13.70;1.00
16200;DHT22;8207;52.494;4.654;2022-09-17T02:09:54;13.80;1.00
16200;DHT22;8207;52.494;4.654;2022-09-17T02:12:30;13.80;1.00
16200;DHT22;8207;52.494;4.654;2022-09-17T02:15:01;13.80;1.00
16200;DHT22;8207;52.494;4.654;2022-09-17T02:17:34;13.80;1.00
16200;DHT22;8207;52.494;4.654;2022-09-17T02:20:03;13.80;1.00
16200;DHT22;8207;52.494;4.654;2022-09-17T02:22:36;13.70;1.00
16200;DHT22;8207;52.494;4.654;2022-09-17T02:25:09;13.60;1.00
16200;DHT22;8207;52.494;4.654;2022-09-17T02:27:48;13.50;1.00
16200;DHT22;8207;52.494;4.654;2022-09-17T02:30:17;13.40;1.00
16200;DHT22;8207;52.494;4.654;2022-09-17T02:32:46;13.30;1.00
16200;DHT22;8207;52.494;4.654;2022-09-17T02:35:14;13.20;1.00
16200;DHT22;8207;52.494;4.654;2022-09-17T02:37:41;13.20;1.00
16200;DHT22;8207;52.494;4.654;2022-09-17T02:40:10;13.20;1.00
16200;DHT22;8207;52.494;4.654;2022-09-17T02:42:51;13.20;1.00
16200;DHT22;8207;52.494;4.654;2022-09-17T02:45:35;13.30;1.00
16200;DHT22;8207;52.494;4.654;2022-09-17T02:48:23;13.40;1.00
16200;DHT22;8207;52.494;4.654;2022-09-17T02:51:09;13.40;1.00
16200;DHT22;8207;52.494;4.654;2022-09-17T02:53:47;13.40;1.00
16200;DHT22;8207;52.494;4.654;2022-09-17T02:56:23;13.40;1.00
16200;DHT22;8207;52.494;4.654;2022-09-17T02:58:56;13.50;1.00
16200;DHT22;8207;52.494;4.654;2022-09-17T03:01:31;13.50;1.00
16200;DHT22;8207;52.494;4.654;2022-09-17T03:04:02;13.50;1.00
16200;DHT22;8207;52.494;4.654;2022-09-17T03:06:30;13.60;1.00
16200;DHT22;8207;52.494;4.654;2022-09-17T03:08:57;13.60;1.00
16200;DHT22;8207;52.494;4.654;2022-09-17T03:11:24;13.50;1.00
16200;DHT22;8207;52.494;4.654;2022-09-17T03:13:51;13.50;1.00
16200;DHT22;8207;52.494;4.654;2022-09-17T03:16:18;13.40;1.00
16200;DHT22;8207;52.494;4.654;2022-09-17T03:18:45;13.30;1.00
16200;DHT22;8207;52.494;4.654;2022-09-17T03:21:13;13.20;1.00
16200;DHT22;8207;52.494;4.654;2022-09-17T03:23:40;13.10;1.00
16200;DHT22;8207;52.494;4.654;2022-09-17T03:26:07;13.10;1.00
16200;DHT22;8207;52.494;4.654;2022-09-17T03:28:33;13.00;1.00
16200;DHT22;8207;52.494;4.654;2022-09-17T03:31:00;13.00;1.00
16200;DHT22;8207;52.494;4.654;2022-09-17T03:33:27;12.90;1.00
16200;DHT22;8207;52.494;4.654;2022-09-17T03:35:54;12.80;1.00
16200;DHT22;8207;52.494;4.654;2022-09-17T03:38:22;12.80;1.00
16200;DHT22;8207;52.494;4.654;2022-09-17T03:40:57;12.70;1.00
16200;DHT22;8207;52.494;4.654;2022-09-17T03:43:23;12.80;1.00
16200;DHT22;8207;52.494;4.654;2022-09-17T03:45:50;12.80;1.00
16200;DHT22;8207;52.494;4.654;2022-09-17T03:48:17;12.80;1.00
16200;DHT22;8207;52.494;4.654;2022-09-17T03:50:44;12.90;1.00
16200;DHT22;8207;52.494;4.654;2022-09-17T03:53:11;13.00;1.00
16200;DHT22;8207;52.494;4.654;2022-09-17T03:55:39;13.10;1.00
16200;DHT22;8207;52.494;4.654;2022-09-17T03:58:06;13.20;1.00
16200;DHT22;8207;52.494;4.654;2022-09-17T04:00:34;13.20;1.00
16200;DHT22;8207;52.494;4.654;2022-09-17T04:03:01;13.10;1.00
16200;DHT22;8207;52.494;4.654;2022-09-17T04:05:28;12.90;1.00
16200;DHT22;8207;52.494;4.654;2022-09-17T04:07:55;12.80;1.00
16200;DHT22;8207;52.494;4.654;2022-09-17T04:10:22;12.70;1.00
16200;DHT22;8207;52.494;4.654;2022-09-17T04:12:50;12.50;1.00
16200;DHT22;8207;52.494;4.654;2022-09-17T04:15:17;12.40;1.00
16200;DHT22;8207;52.494;4.654;2022-09-17T04:17:44;12.30;1.00
16200;DHT22;8207;52.494;4.654;2022-09-17T04:20:11;12.20;12.10
16200;DHT22;8207;52.494;4.654;2022-09-17T04:22:37;12.20;38.20
16200;DHT22;8207;52.494;4.654;2022-09-17T04:25:05;12.30;72.50
16200;DHT22;8207;52.494;4.654;2022-09-17T04:27:32;12.30;88.70
16200;DHT22;8207;52.494;4.654;2022-09-17T04:30:00;12.30;93.20
16200;DHT22;8207;52.494;4.654;2022-09-17T04:32:27;12.30;99.90
16200;DHT22;8207;52.494;4.654;2022-09-17T04:34:54;12.30;99.90
16200;DHT22;8207;52.494;4.654;2022-09-17T04:37:21;12.20;99.90
16200;DHT22;8207;52.494;4.654;2022-09-17T04:39:48;12.30;99.90
16200;DHT22;8207;52.494;4.654;2022-09-17T04:42:15;12.30;99.90
16200;DHT22;8207;52.494;4.654;2022-09-17T04:44:42;12.30;99.90
16200;DHT22;8207;52.494;4.654;2022-09-17T04:47:10;12.30;99.90
16200;DHT22;8207;52.494;4.654;2022-09-17T04:49:37;12.30;99.90
16200;DHT22;8207;52.494;4.654;2022-09-17T04:52:04;12.10;99.90
16200;DHT22;8207;52.494;4.654;2022-09-17T04:54:31;12.10;99.90
16200;DHT22;8207;52.494;4.654;2022-09-17T04:56:58;12.00;99.90
16200;DHT22;8207;52.494;4.654;2022-09-17T04:59:25;12.00;99.90
16200;DHT22;8207;52.494;4.654;2022-09-17T05:01:52;11.90;99.90
16200;DHT22;8207;52.494;4.654;2022-09-17T05:04:21;11.90;99.90
16200;DHT22;8207;52.494;4.654;2022-09-17T05:06:47;12.00;99.90
16200;DHT22;8207;52.494;4.654;2022-09-17T05:09:14;12.00;99.90
16200;DHT22;8207;52.494;4.654;2022-09-17T05:11:41;12.00;99.90
16200;DHT22;8207;52.494;4.654;2022-09-17T05:14:08;12.00;99.90
16200;DHT22;8207;52.494;4.654;2022-09-17T05:16:35;11.90;99.90
16200;DHT22;8207;52.494;4.654;2022-09-17T05:19:02;11.90;99.90
16200;DHT22;8207;52.494;4.654;2022-09-17T05:21:30;11.90;99.90
16200;DHT22;8207;52.494;4.654;2022-09-17T05:23:57;11.90;99.90
16200;DHT22;8207;52.494;4.654;2022-09-17T05:26:25;11.80;99.90
16200;DHT22;8207;52.494;4.654;2022-09-17T05:28:54;11.80;99.90
16200;DHT22;8207;52.494;4.654;2022-09-17T05:31:20;11.80;99.90
16200;DHT22;8207;52.494;4.654;2022-09-17T05:33:47;11.80;99.90
16200;DHT22;8207;52.494;4.654;2022-09-17T05:36:14;11.90;99.90
16200;DHT22;8207;52.494;4.654;2022-09-17T05:38:42;11.90;99.90
16200;DHT22;8207;52.494;4.654;2022-09-17T05:41:09;12.00;99.90
16200;DHT22;8207;52.494;4.654;2022-09-17T05:43:36;12.00;99.90
16200;DHT22;8207;52.494;4.654;2022-09-17T05:46:04;12.00;99.90
16200;DHT22;8207;52.494;4.654;2022-09-17T05:48:31;12.00;99.90
16200;DHT22;8207;52.494;4.654;2022-09-17T05:50:58;12.00;99.90
16200;DHT22;8207;52.494;4.654;2022-09-17T05:53:25;11.90;99.90
16200;DHT22;8207;52.494;4.654;2022-09-17T05:55:56;11.90;99.90
16200;DHT22;8207;52.494;4.654;2022-09-17T05:58:23;11.90;99.90
16200;DHT22;8207;52.494;4.654;2022-09-17T06:00:51;11.90;99.90
16200;DHT22;8207;52.494;4.654;2022-09-17T06:03:19;12.00;99.90
16200;DHT22;8207;52.494;4.654;2022-09-17T06:05:52;12.10;99.90
16200;DHT22;8207;52.494;4.654;2022-09-17T06:08:19;12.20;99.90
16200;DHT22;8207;52.494;4.654;2022-09-17T06:10:46;12.30;99.90
16200;DHT22;8207;52.494;4.654;2022-09-17T06:13:15;12.40;93.20
16200;DHT22;8207;52.494;4.654;2022-09-17T06:15:41;12.40;29.70
16200;DHT22;8207;52.494;4.654;2022-09-17T06:18:08;12.50;1.00
16200;DHT22;8207;52.494;4.654;2022-09-17T06:20:35;12.60;1.00
16200;DHT22;8207;52.494;4.654;2022-09-17T06:23:02;12.60;1.00
16200;DHT22;8207;52.494;4.654;2022-09-17T06:25:29;12.70;1.00
16200;DHT22;8207;52.494;4.654;2022-09-17T06:27:56;12.70;1.00
16200;DHT22;8207;52.494;4.654;2022-09-17T06:30:24;12.80;1.00
16200;DHT22;8207;52.494;4.654;2022-09-17T06:32:51;12.90;1.00
16200;DHT22;8207;52.494;4.654;2022-09-17T06:35:18;13.00;1.00
16200;DHT22;8207;52.494;4.654;2022-09-17T06:37:44;13.00;1.00
16200;DHT22;8207;52.494;4.654;2022-09-17T06:40:11;13.00;14.90
16200;DHT22;8207;52.494;4.654;2022-09-17T06:42:38;12.90;30.20
16200;DHT22;8207;52.494;4.654;2022-09-17T06:45:06;12.80;56.00
16200;DHT22;8207;52.494;4.654;2022-09-17T06:47:34;12.70;44.30
16200;DHT22;8207;52.494;4.654;2022-09-17T06:50:01;12.60;54.30
16200;DHT22;8207;52.494;4.654;2022-09-17T06:52:28;12.60;48.30
16200;DHT22;8207;52.494;4.654;2022-09-17T06:54:55;12.60;71.00
16200;DHT22;8207;52.494;4.654;2022-09-17T06:57:22;12.60;85.20
16200;DHT22;8207;52.494;4.654;2022-09-17T06:59:49;12.70;97.80
16200;DHT22;8207;52.494;4.654;2022-09-17T07:02:16;12.80;99.90
16200;DHT22;8207;52.494;4.654;2022-09-17T07:04:44;12.90;99.90
16200;DHT22;8207;52.494;4.654;2022-09-17T07:07:11;13.00;99.90
16200;DHT22;8207;52.494;4.654;2022-09-17T07:09:38;13.10;91.60
16200;DHT22;8207;52.494;4.654;2022-09-17T07:12:06;13.20;60.30
16200;DHT22;8207;52.494;4.654;2022-09-17T07:14:33;13.20;69.30
16200;DHT22;8207;52.494;4.654;2022-09-17T07:17:00;13.30;82.20
16200;DHT22;8207;52.494;4.654;2022-09-17T07:19:27;13.40;37.20
16200;DHT22;8207;52.494;4.654;2022-09-17T07:21:56;13.60;4.90
16200;DHT22;8207;52.494;4.654;2022-09-17T07:24:23;13.70;1.00
16200;DHT22;8207;52.494;4.654;2022-09-17T07:26:50;13.80;1.00
16200;DHT22;8207;52.494;4.654;2022-09-17T07:29:16;13.90;1.00
16200;DHT22;8207;52.494;4.654;2022-09-17T07:31:43;13.90;1.00
16200;DHT22;8207;52.494;4.654;2022-09-17T07:34:10;14.00;1.00
16200;DHT22;8207;52.494;4.654;2022-09-17T07:36:37;14.00;1.00
16200;DHT22;8207;52.494;4.654;2022-09-17T07:39:05;14.10;1.00
16200;DHT22;8207;52.494;4.654;2022-09-17T07:41:32;14.10;1.00
16200;DHT22;8207;52.494;4.654;2022-09-17T07:44:00;14.00;1.00
16200;DHT22;8207;52.494;4.654;2022-09-17T07:46:27;13.80;1.00
16200;DHT22;8207;52.494;4.654;2022-09-17T07:48:54;13.60;1.00
16200;DHT22;8207;52.494;4.654;2022-09-17T07:51:23;13.40;14.30
16200;DHT22;8207;52.494;4.654;2022-09-17T07:53:53;13.30;31.60
16200;DHT22;8207;52.494;4.654;2022-09-17T07:56:25;13.10;57.10
16200;DHT22;8207;52.494;4.654;2022-09-17T07:58:52;13.00;85.70
16200;DHT22;8207;52.494;4.654;2022-09-17T08:01:19;13.00;99.90
16200;DHT22;8207;52.494;4.654;2022-09-17T08:03:48;13.00;99.90
16200;DHT22;8207;52.494;4.654;2022-09-17T08:06:17;13.10;99.90
16200;DHT22;8207;52.494;4.654;2022-09-17T08:08:45;13.20;99.90
16200;DHT22;8207;52.494;4.654;2022-09-17T08:11:13;13.30;99.90
16200;DHT22;8207;52.494;4.654;2022-09-17T08:13:42;13.40;99.90
16200;DHT22;8207;52.494;4.654;2022-09-17T08:16:10;13.50;99.90
16200;DHT22;8207;52.494;4.654;2022-09-17T08:18:38;13.80;95.50
16200;DHT22;8207;52.494;4.654;2022-09-17T08:21:06;13.90;63.30
16200;DHT22;8207;52.494;4.654;2022-09-17T08:23:35;13.80;41.40
16200;DHT22;8207;52.494;4.654;2022-09-17T08:26:03;13.70;29.60
16200;DHT22;8207;52.494;4.654;2022-09-17T08:28:33;13.60;5.70
16200;DHT22;8207;52.494;4.654;2022-09-17T08:31:03;13.40;10.80
16200;DHT22;8207;52.494;4.654;2022-09-17T08:33:31;13.30;36.00
16200;DHT22;8207;52.494;4.654;2022-09-17T08:35:58;13.30;64.20
16200;DHT22;8207;52.494;4.654;2022-09-17T08:38:26;13.60;96.70
16200;DHT22;8207;52.494;4.654;2022-09-17T08:41:02;13.80;49.00
16200;DHT22;8207;52.494;4.654;2022-09-17T08:43:37;14.00;3.30
16200;DHT22;8207;52.494;4.654;2022-09-17T08:46:09;14.20;1.00
16200;DHT22;8207;52.494;4.654;2022-09-17T08:48:40;14.50;1.00
16200;DHT22;8207;52.494;4.654;2022-09-17T08:51:18;14.80;1.00
16200;DHT22;8207;52.494;4.654;2022-09-17T08:53:58;15.00;1.00
16200;DHT22;8207;52.494;4.654;2022-09-17T08:56:32;15.10;1.00
16200;DHT22;8207;52.494;4.654;2022-09-17T08:59:24;15.10;1.00
16200;DHT22;8207;52.494;4.654;2022-09-17T09:01:59;15.20;1.00
16200;DHT22;8207;52.494;4.654;2022-09-17T09:04:47;15.30;1.00
16200;DHT22;8207;52.494;4.654;2022-09-17T09:07:23;15.40;1.00
16200;DHT22;8207;52.494;4.654;2022-09-17T09:09:55;15.50;1.00
16200;DHT22;8207;52.494;4.654;2022-09-17T09:12:32;15.50;1.00
16200;DHT22;8207;52.494;4.654;2022-09-17T09:15:01;15.40;1.00
16200;DHT22;8207;52.494;4.654;2022-09-17T09:17:35;15.20;1.00
16200;DHT22;8207;52.494;4.654;2022-09-17T09:20:04;15.10;1.00
16200;DHT22;8207;52.494;4.654;2022-09-17T09:22:45;15.10;1.00
16200;DHT22;8207;52.494;4.654;2022-09-17T09:25:20;15.20;1.00
16200;DHT22;8207;52.494;4.654;2022-09-17T09:28:04;15.30;1.00
16200;DHT22;8207;52.494;4.654;2022-09-17T09:30:44;15.50;1.00
16200;DHT22;8207;52.494;4.654;2022-09-17T09:33:18;15.70;1.00
16200;DHT22;8207;52.494;4.654;2022-09-17T09:35:51;16.00;1.00
16200;DHT22;8207;52.494;4.654;2022-09-17T09:38:23;16.10;1.00
16200;DHT22;8207;52.494;4.654;2022-09-17T09:40:59;16.10;1.00
16200;DHT22;8207;52.494;4.654;2022-09-17T09:43:35;16.10;1.00
16200;DHT22;8207;52.494;4.654;2022-09-17T09:49:07;16.50;1.00
16200;DHT22;8207;52.494;4.654;2022-09-17T09:51:48;16.60;99.90
16200;DHT22;8207;52.494;4.654;2022-09-17T09:54:29;16.70;1.00
16200;DHT22;8207;52.494;4.654;2022-09-17T09:57:00;16.70;1.00
16200;DHT22;8207;52.494;4.654;2022-09-17T09:59:30;16.80;1.00
16200;DHT22;8207;52.494;4.654;2022-09-17T10:01:57;16.90;1.00
16200;DHT22;8207;52.494;4.654;2022-09-17T10:04:27;17.00;99.90
16200;DHT22;8207;52.494;4.654;2022-09-17T10:07:00;17.00;1.00
16200;DHT22;8207;52.494;4.654;2022-09-17T10:09:28;17.20;1.00
16200;DHT22;8207;52.494;4.654;2022-09-17T10:12:02;17.30;1.00
16200;DHT22;8207;52.494;4.654;2022-09-17T10:14:31;17.30;1.00
16200;DHT22;8207;52.494;4.654;2022-09-17T10:17:18;17.10;1.00
16200;DHT22;8207;52.494;4.654;2022-09-17T10:20:11;17.10;99.90
16200;DHT22;8207;52.494;4.654;2022-09-17T10:22:40;17.20;1.00
16200;DHT22;8207;52.494;4.654;2022-09-17T10:25:26;17.30;99.90
16200;DHT22;8207;52.494;4.654;2022-09-17T10:27:54;17.40;99.90
16200;DHT22;8207;52.494;4.654;2022-09-17T10:30:22;17.50;1.00
16200;DHT22;8207;52.494;4.654;2022-09-17T10:33:18;17.60;99.90
16200;DHT22;8207;52.494;4.654;2022-09-17T10:35:59;17.80;1.00
16200;DHT22;8207;52.494;4.654;2022-09-17T10:38:35;17.90;99.90
16200;DHT22;8207;52.494;4.654;2022-09-17T10:41:13;18.00;1.00
16200;DHT22;8207;52.494;4.654;2022-09-17T10:43:41;18.00;1.00
16200;DHT22;8207;52.494;4.654;2022-09-17T10:46:11;18.10;1.00
16200;DHT22;8207;52.494;4.654;2022-09-17T10:48:42;18.20;1.00
16200;DHT22;8207;52.494;4.654;2022-09-17T10:51:19;18.20;1.00
16200;DHT22;8207;52.494;4.654;2022-09-17T10:54:18;18.30;1.00
16200;DHT22;8207;52.494;4.654;2022-09-17T10:56:53;18.00;99.90
16200;DHT22;8207;52.494;4.654;2022-09-17T11:02:39;17.90;99.90
16200;DHT22;8207;52.494;4.654;2022-09-17T11:05:25;17.80;1.00
16200;DHT22;8207;52.494;4.654;2022-09-17T11:08:01;18.00;1.00
16200;DHT22;8207;52.494;4.654;2022-09-17T11:10:35;18.00;1.00
16200;DHT22;8207;52.494;4.654;2022-09-17T11:13:13;17.90;99.90
16200;DHT22;8207;52.494;4.654;2022-09-17T11:16:00;17.90;1.00
16200;DHT22;8207;52.494;4.654;2022-09-17T11:18:39;18.00;1.00
16200;DHT22;8207;52.494;4.654;2022-09-17T11:21:18;18.20;99.90
16200;DHT22;8207;52.494;4.654;2022-09-17T11:24:26;18.30;1.00
16200;DHT22;8207;52.494;4.654;2022-09-17T11:27:04;18.30;99.90
16200;DHT22;8207;52.494;4.654;2022-09-17T11:29:47;18.40;99.90
16200;DHT22;8207;52.494;4.654;2022-09-17T11:32:33;18.40;99.90
16200;DHT22;8207;52.494;4.654;2022-09-17T11:35:07;18.50;99.90
16200;DHT22;8207;52.494;4.654;2022-09-17T11:37:39;18.50;1.00
16200;DHT22;8207;52.494;4.654;2022-09-17T11:40:13;18.50;99.90
16200;DHT22;8207;52.494;4.654;2022-09-17T11:42:43;18.10;1.00
16200;DHT22;8207;52.494;4.654;2022-09-17T11:45:15;17.80;1.00
16200;DHT22;8207;52.494;4.654;2022-09-17T11:47:46;17.60;10.80
16200;DHT22;8207;52.494;4.654;2022-09-17T11:50:18;17.40;99.90
16200;DHT22;8207;52.494;4.654;2022-09-17T11:52:57;17.40;6.60
16200;DHT22;8207;52.494;4.654;2022-09-17T11:55:31;17.50;1.00
16200;DHT22;8207;52.494;4.654;2022-09-17T11:58:04;17.60;1.00
16200;DHT22;8207;52.494;4.654;2022-09-17T12:00:37;17.90;1.00
16200;DHT22;8207;52.494;4.654;2022-09-17T12:03:12;18.00;30.70
16200;DHT22;8207;52.494;4.654;2022-09-17T12:05:44;17.90;99.90
16200;DHT22;8207;52.494;4.654;2022-09-17T12:08:17;18.00;99.90
16200;DHT22;8207;52.494;4.654;2022-09-17T12:10:50;18.10;1.00
16200;DHT22;8207;52.494;4.654;2022-09-17T12:13:27;18.10;99.90
16200;DHT22;8207;52.494;4.654;2022-09-17T12:16:09;18.10;1.00
16200;DHT22;8207;52.494;4.654;2022-09-17T12:18:46;18.10;1.00
16200;DHT22;8207;52.494;4.654;2022-09-17T12:21:18;18.20;1.00
16200;DHT22;8207;52.494;4.654;2022-09-17T12:23:50;18.10;1.00
16200;DHT22;8207;52.494;4.654;2022-09-17T12:26:33;17.90;1.00
16200;DHT22;8207;52.494;4.654;2022-09-17T12:29:12;18.00;1.00
16200;DHT22;8207;52.494;4.654;2022-09-17T12:31:51;18.20;99.90
16200;DHT22;8207;52.494;4.654;2022-09-17T12:34:30;18.20;99.90
16200;DHT22;8207;52.494;4.654;2022-09-17T12:37:07;18.10;99.90
16200;DHT22;8207;52.494;4.654;2022-09-17T12:39:58;18.10;99.90
16200;DHT22;8207;52.494;4.654;2022-09-17T12:42:43;18.20;64.70
16200;DHT22;8207;52.494;4.654;2022-09-17T12:45:42;18.10;1.00
16200;DHT22;8207;52.494;4.654;2022-09-17T12:48:32;18.10;99.90
16200;DHT22;8207;52.494;4.654;2022-09-17T12:51:17;18.30;1.00
16200;DHT22;8207;52.494;4.654;2022-09-17T12:53:55;18.30;1.00
16200;DHT22;8207;52.494;4.654;2022-09-17T12:56:33;18.20;1.00
16200;DHT22;8207;52.494;4.654;2022-09-17T12:59:08;18.30;99.90
16200;DHT22;8207;52.494;4.654;2022-09-17T13:01:42;18.30;99.90
16200;DHT22;8207;52.494;4.654;2022-09-17T13:04:19;18.30;1.00
16200;DHT22;8207;52.494;4.654;2022-09-17T13:09:55;18.30;1.00
16200;DHT22;8207;52.494;4.654;2022-09-17T13:12:30;18.30;99.90
16200;DHT22;8207;52.494;4.654;2022-09-17T13:18:14;18.30;1.00
16200;DHT22;8207;52.494;4.654;2022-09-17T13:20:52;18.20;1.00
16200;DHT22;8207;52.494;4.654;2022-09-17T13:23:30;18.30;99.90
16200;DHT22;8207;52.494;4.654;2022-09-17T13:25:57;18.40;1.00
16200;DHT22;8207;52.494;4.654;2022-09-17T13:28:38;18.40;1.00
16200;DHT22;8207;52.494;4.654;2022-09-17T13:31:07;18.50;1.00
16200;DHT22;8207;52.494;4.654;2022-09-17T13:34:03;18.40;1.00
16200;DHT22;8207;52.494;4.654;2022-09-17T13:36:41;18.30;1.00
16200;DHT22;8207;52.494;4.654;2022-09-17T13:39:11;18.30;43.40
16200;DHT22;8207;52.494;4.654;2022-09-17T13:42:01;18.20;1.00
16200;DHT22;8207;52.494;4.654;2022-09-17T13:44:34;18.20;1.00
16200;DHT22;8207;52.494;4.654;2022-09-17T13:47:20;18.10;99.90
16200;DHT22;8207;52.494;4.654;2022-09-17T13:49:50;18.00;99.90
16200;DHT22;8207;52.494;4.654;2022-09-17T13:52:35;17.90;99.90
16200;DHT22;8207;52.494;4.654;2022-09-17T13:55:04;18.00;1.00
16200;DHT22;8207;52.494;4.654;2022-09-17T13:57:32;17.90;99.90
16200;DHT22;8207;52.494;4.654;2022-09-17T14:00:45;17.90;1.00
16200;DHT22;8207;52.494;4.654;2022-09-17T14:06:46;17.80;99.90
16200;DHT22;8207;52.494;4.654;2022-09-17T14:09:34;17.70;1.00
16200;DHT22;8207;52.494;4.654;2022-09-17T14:12:52;17.60;1.00
16200;DHT22;8207;52.494;4.654;2022-09-17T14:15:54;17.50;1.00
16200;DHT22;8207;52.494;4.654;2022-09-17T14:18:54;17.50;18.60
16200;DHT22;8207;52.494;4.654;2022-09-17T14:21:26;17.50;1.00
16200;DHT22;8207;52.494;4.654;2022-09-17T14:23:57;17.40;99.90
16200;DHT22;8207;52.494;4.654;2022-09-17T14:26:43;17.40;99.90
16200;DHT22;8207;52.494;4.654;2022-09-17T14:29:24;17.30;1.00
16200;DHT22;8207;52.494;4.654;2022-09-17T14:31:55;17.10;1.00
16200;DHT22;8207;52.494;4.654;2022-09-17T14:34:24;17.00;99.90
16200;DHT22;8207;52.494;4.654;2022-09-17T14:36:52;17.00;1.00
16200;DHT22;8207;52.494;4.654;2022-09-17T14:39:23;17.00;1.00
16200;DHT22;8207;52.494;4.654;2022-09-17T14:41:52;17.00;1.00
16200;DHT22;8207;52.494;4.654;2022-09-17T14:44:21;17.00;99.90
16200;DHT22;8207;52.494;4.654;2022-09-17T14:46:53;17.00;99.90
16200;DHT22;8207;52.494;4.654;2022-09-17T14:49:23;17.10;99.90
16200;DHT22;8207;52.494;4.654;2022-09-17T14:51:50;17.10;99.90
16200;DHT22;8207;52.494;4.654;2022-09-17T14:54:23;17.10;1.00
16200;DHT22;8207;52.494;4.654;2022-09-17T14:56:56;17.00;1.00
16200;DHT22;8207;52.494;4.654;2022-09-17T14:59:41;17.00;1.00
16200;DHT22;8207;52.494;4.654;2022-09-17T15:02:26;17.10;32.00
16200;DHT22;8207;52.494;4.654;2022-09-17T15:04:54;17.20;49.30
16200;DHT22;8207;52.494;4.654;2022-09-17T15:07:22;17.10;1.00
16200;DHT22;8207;52.494;4.654;2022-09-17T15:09:50;17.10;70.80
16200;DHT22;8207;52.494;4.654;2022-09-17T15:12:23;16.90;99.90
16200;DHT22;8207;52.494;4.654;2022-09-17T15:14:51;16.80;1.00
16200;DHT22;8207;52.494;4.654;2022-09-17T15:17:19;16.70;1.00
16200;DHT22;8207;52.494;4.654;2022-09-17T15:19:49;16.70;99.90
16200;DHT22;8207;52.494;4.654;2022-09-17T15:22:22;16.60;1.00
16200;DHT22;8207;52.494;4.654;2022-09-17T15:24:55;16.60;1.00
16200;DHT22;8207;52.494;4.654;2022-09-17T15:27:26;16.50;99.90
16200;DHT22;8207;52.494;4.654;2022-09-17T15:29:58;16.40;31.60
16200;DHT22;8207;52.494;4.654;2022-09-17T15:32:27;16.30;1.00
16200;DHT22;8207;52.494;4.654;2022-09-17T15:35:19;16.20;1.00
16200;DHT22;8207;52.494;4.654;2022-09-17T15:37:47;16.10;1.00
16200;DHT22;8207;52.494;4.654;2022-09-17T15:40:25;15.90;1.00
16200;DHT22;8207;52.494;4.654;2022-09-17T15:42:59;15.60;1.00
16200;DHT22;8207;52.494;4.654;2022-09-17T15:45:28;15.40;1.00
16200;DHT22;8207;52.494;4.654;2022-09-17T15:47:57;15.30;1.00
16200;DHT22;8207;52.494;4.654;2022-09-17T15:50:26;15.10;1.00
16200;DHT22;8207;52.494;4.654;2022-09-17T15:53:12;15.00;1.00
16200;DHT22;8207;52.494;4.654;2022-09-17T15:55:42;14.80;5.80
16200;DHT22;8207;52.494;4.654;2022-09-17T15:58:22;14.70;33.50
16200;DHT22;8207;52.494;4.654;2022-09-17T16:04:14;14.40;53.90
16200;DHT22;8207;52.494;4.654;2022-09-17T16:06:47;14.10;75.20
16200;DHT22;8207;52.494;4.654;2022-09-17T16:09:37;14.00;95.60
16200;DHT22;8207;52.494;4.654;2022-09-17T16:12:06;13.90;99.90
16200;DHT22;8207;52.494;4.654;2022-09-17T16:14:33;13.80;99.90
16200;DHT22;8207;52.494;4.654;2022-09-17T16:17:13;13.80;99.90
16200;DHT22;8207;52.494;4.654;2022-09-17T16:19:42;13.80;99.90
16200;DHT22;8207;52.494;4.654;2022-09-17T16:22:09;13.70;99.90
16200;DHT22;8207;52.494;4.654;2022-09-17T16:24:36;13.70;99.90
16200;DHT22;8207;52.494;4.654;2022-09-17T16:27:03;13.70;99.90
16200;DHT22;8207;52.494;4.654;2022-09-17T16:29:32;13.60;99.90
16200;DHT22;8207;52.494;4.654;2022-09-17T16:31:59;13.60;99.90
16200;DHT22;8207;52.494;4.654;2022-09-17T16:34:26;13.70;99.90
16200;DHT22;8207;52.494;4.654;2022-09-17T16:36:52;13.70;99.90
16200;DHT22;8207;52.494;4.654;2022-09-17T16:39:19;13.70;99.90
16200;DHT22;8207;52.494;4.654;2022-09-17T16:41:46;13.70;99.90
16200;DHT22;8207;52.494;4.654;2022-09-17T16:44:13;13.80;99.90
16200;DHT22;8207;52.494;4.654;2022-09-17T16:46:41;13.70;99.90
16200;DHT22;8207;52.494;4.654;2022-09-17T16:49:08;13.80;99.90
16200;DHT22;8207;52.494;4.654;2022-09-17T16:51:34;13.80;99.90